Hauptseite
METAR-TAF:

METAR-TAF

Flughäfen :

Militärflugplatz Cameri

Novara, Italien

Breite: 45-31N, Länge: 008-40E, Höhe: 178 m

Beobachtung

Neuester Wetterbericht von vor 18 Stunden und 44 Minuten, um 17:55 UTC
Wind 8 kt aus Südost
Temperatur 15°C
Luftfeuchtigkeit 72%
Luftdruck 1012 hPa
Sichtweite 10 km oder mehr
Leicht bewölkt in der Höhe von 3000 ft

METAR: LIMN 241755Z 13008KT 9999 FEW030 15/10 Q1012 RMK SCT SCT070 VIS MIN 9999 BLU

Zeit: 14:39 (12:39 UTC)

Prognose

Neuester Wetterbericht von vor 19 Stunden und 39 Minuten, um 17:00 UTC
Gültige Prognose vom 24 um 18 UTC bis 25 um 03 UTC
Wind 10 kt aus Südost
Sichtweite 10 km oder mehr
Durchbrochene Bewölkung in der Höhe von 2000 ft
Zeitweise
vom 24 um 18 UTC bis 24 um 21 UTC
Wind 20 kt aus Süd/Südost
Sichtweite: 5000 m
Regen, feuchter Dunst

TAF: LIMN 241700Z 2418/2503 13010KT 9999 BKN020 TEMPO 2418/2421 16020KT 5000 RA BR

Wetterbeobachtungen und Prognosen von mehr als 4000 Flughäfen (METAR und TAF Bericht).

Die verfügbaren Stationen werden durch gelbe und rote Markierungen auf der Karte dargestellt.

Führen Sie die Maus auf sie, um den Namen der Station zu sehen.

Darauf klicken, um die Beobachtung von Wetterbeobachtungen und Prognosen zu sehen.

Um die Karte zu ändern : klicken Sie auf den grünen Tasten mit einem schwarzen Kreuz Zum Vergrößern, auf den grünen Button mit einem Gedankenstrich zu verkleinern, oder auf die grünen Pfeile für benachbarte Karten.


METAR-TAF: